<?xml version="1.0" encoding="UTF-8" standalone="no" ?>
<gpx xmlns="http://www.topografix.com/GPX/1/1" xmlns:xsi="http://www.w3.org/2001/XMLSchema-instance" xsi:schemaLocation="http://www.topografix.com/GPX/1/1 http://www.topografix.com/GPX/1/1/gpx.xsd" version="1.1" creator="VisuGPX - https://www.visugpx.com">
  <metadata>
    <name>GR20 etape 5</name>
  </metadata>
  <trk>
    <name><![CDATA[GR20 Traversée de la Corse (2020)]]></name>
    <trkseg>
      <trkpt lat="42.36111" lon="8.90991">
        <ele>1628.369</ele>
        <time>2020-03-19T20:36:04Z</time>
      </trkpt>
      <trkpt lat="42.36094" lon="8.90989">
        <ele>1622.693</ele>
        <time>2020-03-19T20:36:24Z</time>
      </trkpt>
      <trkpt lat="42.36069" lon="8.90943">
        <ele>1612.346</ele>
        <time>2020-03-19T20:36:44Z</time>
      </trkpt>
      <trkpt lat="42.36035" lon="8.9092">
        <ele>1600.092</ele>
        <time>2020-03-19T20:37:04Z</time>
      </trkpt>
      <trkpt lat="42.36019" lon="8.90917">
        <ele>1593.661</ele>
        <time>2020-03-19T20:37:24Z</time>
      </trkpt>
      <trkpt lat="42.36024" lon="8.90947">
        <ele>1598.721</ele>
        <time>2020-03-19T20:37:44Z</time>
      </trkpt>
      <trkpt lat="42.36006" lon="8.90963">
        <ele>1593.613</ele>
        <time>2020-03-19T20:38:04Z</time>
      </trkpt>
      <trkpt lat="42.35992" lon="8.90986">
        <ele>1592.208</ele>
        <time>2020-03-19T20:38:24Z</time>
      </trkpt>
      <trkpt lat="42.35965" lon="8.90997">
        <ele>1584.17</ele>
        <time>2020-03-19T20:38:44Z</time>
      </trkpt>
      <trkpt lat="42.35915" lon="8.9098">
        <ele>1563.873</ele>
        <time>2020-03-19T20:39:04Z</time>
      </trkpt>
      <trkpt lat="42.35898" lon="8.90987">
        <ele>1557.365</ele>
        <time>2020-03-19T20:39:24Z</time>
      </trkpt>
      <trkpt lat="42.35866" lon="8.90979">
        <ele>1545.193</ele>
        <time>2020-03-19T20:39:44Z</time>
      </trkpt>
      <trkpt lat="42.35858" lon="8.90972">
        <ele>1540.797</ele>
        <time>2020-03-19T20:40:04Z</time>
      </trkpt>
      <trkpt lat="42.35846" lon="8.90971">
        <ele>1536.561</ele>
        <time>2020-03-19T20:40:24Z</time>
      </trkpt>
      <trkpt lat="42.35834" lon="8.90965">
        <ele>1532.384</ele>
        <time>2020-03-19T20:40:44Z</time>
      </trkpt>
      <trkpt lat="42.35826" lon="8.90974">
        <ele>1530.79</ele>
        <time>2020-03-19T20:41:04Z</time>
      </trkpt>
      <trkpt lat="42.35815" lon="8.90972">
        <ele>1528.191</ele>
        <time>2020-03-19T20:41:24Z</time>
      </trkpt>
      <trkpt lat="42.35798" lon="8.90979">
        <ele>1525.481</ele>
        <time>2020-03-19T20:41:44Z</time>
      </trkpt>
      <trkpt lat="42.3578" lon="8.90972">
        <ele>1521.519</ele>
        <time>2020-03-19T20:42:04Z</time>
      </trkpt>
      <trkpt lat="42.3577" lon="8.90975">
        <ele>1519.608</ele>
        <time>2020-03-19T20:42:24Z</time>
      </trkpt>
      <trkpt lat="42.35738" lon="8.9096">
        <ele>1517.973</ele>
        <time>2020-03-19T20:42:44Z</time>
      </trkpt>
      <trkpt lat="42.35727" lon="8.9094">
        <ele>1522.696</ele>
        <time>2020-03-19T20:43:04Z</time>
      </trkpt>
      <trkpt lat="42.35689" lon="8.90952">
        <ele>1513.958</ele>
        <time>2020-03-19T20:43:24Z</time>
      </trkpt>
      <trkpt lat="42.35664" lon="8.90956">
        <ele>1510.356</ele>
        <time>2020-03-19T20:43:44Z</time>
      </trkpt>
      <trkpt lat="42.35652" lon="8.90966">
        <ele>1505.93</ele>
        <time>2020-03-19T20:44:04Z</time>
      </trkpt>
      <trkpt lat="42.35627" lon="8.90969">
        <ele>1502.734</ele>
        <time>2020-03-19T20:44:24Z</time>
      </trkpt>
      <trkpt lat="42.35614" lon="8.90959">
        <ele>1503.367</ele>
        <time>2020-03-19T20:44:44Z</time>
      </trkpt>
      <trkpt lat="42.35581" lon="8.90962">
        <ele>1496.943</ele>
        <time>2020-03-19T20:45:04Z</time>
      </trkpt>
      <trkpt lat="42.35565" lon="8.90956">
        <ele>1494.961</ele>
        <time>2020-03-19T20:45:24Z</time>
      </trkpt>
      <trkpt lat="42.35541" lon="8.90961">
        <ele>1488.921</ele>
        <time>2020-03-19T20:45:44Z</time>
      </trkpt>
      <trkpt lat="42.35512" lon="8.90957">
        <ele>1484.513</ele>
        <time>2020-03-19T20:46:04Z</time>
      </trkpt>
      <trkpt lat="42.35456" lon="8.90938">
        <ele>1473.008</ele>
        <time>2020-03-19T20:46:24Z</time>
      </trkpt>
      <trkpt lat="42.35441" lon="8.90921">
        <ele>1471.38</ele>
        <time>2020-03-19T20:46:44Z</time>
      </trkpt>
      <trkpt lat="42.35434" lon="8.90905">
        <ele>1473.373</ele>
        <time>2020-03-19T20:47:04Z</time>
      </trkpt>
      <trkpt lat="42.35403" lon="8.90893">
        <ele>1467.865</ele>
        <time>2020-03-19T20:47:24Z</time>
      </trkpt>
      <trkpt lat="42.35379" lon="8.90846">
        <ele>1466.773</ele>
        <time>2020-03-19T20:47:44Z</time>
      </trkpt>
      <trkpt lat="42.35371" lon="8.90821">
        <ele>1466.687</ele>
        <time>2020-03-19T20:48:04Z</time>
      </trkpt>
      <trkpt lat="42.35356" lon="8.90806">
        <ele>1463.331</ele>
        <time>2020-03-19T20:48:24Z</time>
      </trkpt>
      <trkpt lat="42.35339" lon="8.9081">
        <ele>1457.824</ele>
        <time>2020-03-19T20:48:44Z</time>
      </trkpt>
      <trkpt lat="42.35327" lon="8.90806">
        <ele>1454.09</ele>
        <time>2020-03-19T20:49:04Z</time>
      </trkpt>
      <trkpt lat="42.35322" lon="8.90793">
        <ele>1452.772</ele>
        <time>2020-03-19T20:49:24Z</time>
      </trkpt>
      <trkpt lat="42.35297" lon="8.90787">
        <ele>1444.713</ele>
        <time>2020-03-19T20:49:44Z</time>
      </trkpt>
      <trkpt lat="42.35298" lon="8.90752">
        <ele>1448.414</ele>
        <time>2020-03-19T20:50:04Z</time>
      </trkpt>
      <trkpt lat="42.3529" lon="8.90737">
        <ele>1448.808</ele>
        <time>2020-03-19T20:50:24Z</time>
      </trkpt>
      <trkpt lat="42.35263" lon="8.90749">
        <ele>1439.551</ele>
        <time>2020-03-19T20:50:44Z</time>
      </trkpt>
      <trkpt lat="42.35242" lon="8.90744">
        <ele>1435.254</ele>
        <time>2020-03-19T20:51:04Z</time>
      </trkpt>
      <trkpt lat="42.35234" lon="8.90735">
        <ele>1433.826</ele>
        <time>2020-03-19T20:51:24Z</time>
      </trkpt>
      <trkpt lat="42.3521" lon="8.90739">
        <ele>1427.154</ele>
        <time>2020-03-19T20:51:44Z</time>
      </trkpt>
      <trkpt lat="42.35197" lon="8.90717">
        <ele>1424.958</ele>
        <time>2020-03-19T20:52:04Z</time>
      </trkpt>
      <trkpt lat="42.35182" lon="8.90714">
        <ele>1423.422</ele>
        <time>2020-03-19T20:52:24Z</time>
      </trkpt>
      <trkpt lat="42.35167" lon="8.90717">
        <ele>1419.945</ele>
        <time>2020-03-19T20:52:44Z</time>
      </trkpt>
      <trkpt lat="42.3513" lon="8.90705">
        <ele>1418.171</ele>
        <time>2020-03-19T20:53:04Z</time>
      </trkpt>
      <trkpt lat="42.35093" lon="8.9067">
        <ele>1427.233</ele>
        <time>2020-03-19T20:53:24Z</time>
      </trkpt>
      <trkpt lat="42.35056" lon="8.90636">
        <ele>1431.423</ele>
        <time>2020-03-19T20:53:44Z</time>
      </trkpt>
      <trkpt lat="42.35023" lon="8.90615">
        <ele>1436.515</ele>
        <time>2020-03-19T20:54:04Z</time>
      </trkpt>
      <trkpt lat="42.34993" lon="8.90609">
        <ele>1436.908</ele>
        <time>2020-03-19T20:54:24Z</time>
      </trkpt>
      <trkpt lat="42.34935" lon="8.90622">
        <ele>1436.957</ele>
        <time>2020-03-19T20:54:44Z</time>
      </trkpt>
      <trkpt lat="42.34858" lon="8.9062">
        <ele>1427.88</ele>
        <time>2020-03-19T20:55:04Z</time>
      </trkpt>
      <trkpt lat="42.34814" lon="8.906">
        <ele>1426.112</ele>
        <time>2020-03-19T20:55:24Z</time>
      </trkpt>
      <trkpt lat="42.34785" lon="8.9058">
        <ele>1426.81</ele>
        <time>2020-03-19T20:55:44Z</time>
      </trkpt>
      <trkpt lat="42.34761" lon="8.90551">
        <ele>1430.214</ele>
        <time>2020-03-19T20:56:04Z</time>
      </trkpt>
      <trkpt lat="42.34723" lon="8.90535">
        <ele>1419.088</ele>
        <time>2020-03-19T20:56:24Z</time>
      </trkpt>
      <trkpt lat="42.34703" lon="8.90511">
        <ele>1417.021</ele>
        <time>2020-03-19T20:56:44Z</time>
      </trkpt>
      <trkpt lat="42.34659" lon="8.90497">
        <ele>1403.767</ele>
        <time>2020-03-19T20:57:04Z</time>
      </trkpt>
      <trkpt lat="42.34621" lon="8.90441">
        <ele>1401.386</ele>
        <time>2020-03-19T20:57:24Z</time>
      </trkpt>
      <trkpt lat="42.34598" lon="8.90394">
        <ele>1404.56</ele>
        <time>2020-03-19T20:57:44Z</time>
      </trkpt>
      <trkpt lat="42.34567" lon="8.90383">
        <ele>1400.726</ele>
        <time>2020-03-19T20:58:04Z</time>
      </trkpt>
      <trkpt lat="42.34547" lon="8.90359">
        <ele>1406.408</ele>
        <time>2020-03-19T20:58:24Z</time>
      </trkpt>
      <trkpt lat="42.34494" lon="8.90366">
        <ele>1385.922</ele>
        <time>2020-03-19T20:58:44Z</time>
      </trkpt>
      <trkpt lat="42.34477" lon="8.90335">
        <ele>1391.965</ele>
        <time>2020-03-19T20:59:04Z</time>
      </trkpt>
      <trkpt lat="42.34461" lon="8.90316">
        <ele>1388.867</ele>
        <time>2020-03-19T20:59:24Z</time>
      </trkpt>
      <trkpt lat="42.34441" lon="8.90251">
        <ele>1390.285</ele>
        <time>2020-03-19T20:59:44Z</time>
      </trkpt>
      <trkpt lat="42.34427" lon="8.90216">
        <ele>1386.749</ele>
        <time>2020-03-19T21:00:04Z</time>
      </trkpt>
      <trkpt lat="42.34426" lon="8.90201">
        <ele>1387.383</ele>
        <time>2020-03-19T21:00:24Z</time>
      </trkpt>
      <trkpt lat="42.34414" lon="8.90188">
        <ele>1383.116</ele>
        <time>2020-03-19T21:00:44Z</time>
      </trkpt>
      <trkpt lat="42.34403" lon="8.90135">
        <ele>1390.152</ele>
        <time>2020-03-19T21:01:04Z</time>
      </trkpt>
      <trkpt lat="42.34366" lon="8.9011">
        <ele>1383.414</ele>
        <time>2020-03-19T21:01:24Z</time>
      </trkpt>
      <trkpt lat="42.34333" lon="8.90064">
        <ele>1384.154</ele>
        <time>2020-03-19T21:01:44Z</time>
      </trkpt>
      <trkpt lat="42.34321" lon="8.90065">
        <ele>1382.409</ele>
        <time>2020-03-19T21:02:04Z</time>
      </trkpt>
      <trkpt lat="42.34304" lon="8.90085">
        <ele>1375.808</ele>
        <time>2020-03-19T21:02:24Z</time>
      </trkpt>
      <trkpt lat="42.34281" lon="8.90087">
        <ele>1377.775</ele>
        <time>2020-03-19T21:02:44Z</time>
      </trkpt>
      <trkpt lat="42.34245" lon="8.90133">
        <ele>1376.118</ele>
        <time>2020-03-19T21:03:04Z</time>
      </trkpt>
      <trkpt lat="42.34184" lon="8.90188">
        <ele>1390.46</ele>
        <time>2020-03-19T21:03:24Z</time>
      </trkpt>
      <trkpt lat="42.34136" lon="8.90206">
        <ele>1399.318</ele>
        <time>2020-03-19T21:03:44Z</time>
      </trkpt>
      <trkpt lat="42.34074" lon="8.90168">
        <ele>1407.592</ele>
        <time>2020-03-19T21:04:04Z</time>
      </trkpt>
      <trkpt lat="42.34039" lon="8.9017">
        <ele>1408.666</ele>
        <time>2020-03-19T21:04:24Z</time>
      </trkpt>
      <trkpt lat="42.34019" lon="8.90182">
        <ele>1405.089</ele>
        <time>2020-03-19T21:04:44Z</time>
      </trkpt>
      <trkpt lat="42.33986" lon="8.9019">
        <ele>1405.765</ele>
        <time>2020-03-19T21:05:04Z</time>
      </trkpt>
      <trkpt lat="42.3396" lon="8.90207">
        <ele>1405.162</ele>
        <time>2020-03-19T21:05:24Z</time>
      </trkpt>
      <trkpt lat="42.33929" lon="8.90215">
        <ele>1405.183</ele>
        <time>2020-03-19T21:05:44Z</time>
      </trkpt>
      <trkpt lat="42.33894" lon="8.90204">
        <ele>1405.711</ele>
        <time>2020-03-19T21:06:04Z</time>
      </trkpt>
      <trkpt lat="42.33855" lon="8.90164">
        <ele>1408.208</ele>
        <time>2020-03-19T21:06:24Z</time>
      </trkpt>
      <trkpt lat="42.33804" lon="8.90075">
        <ele>1398.32</ele>
        <time>2020-03-19T21:06:44Z</time>
      </trkpt>
      <trkpt lat="42.338" lon="8.90012">
        <ele>1408.383</ele>
        <time>2020-03-19T21:07:04Z</time>
      </trkpt>
      <trkpt lat="42.33788" lon="8.8997">
        <ele>1409.485</ele>
        <time>2020-03-19T21:07:24Z</time>
      </trkpt>
      <trkpt lat="42.33687" lon="8.89867">
        <ele>1377.823</ele>
        <time>2020-03-19T21:07:44Z</time>
      </trkpt>
      <trkpt lat="42.33664" lon="8.89802">
        <ele>1383.127</ele>
        <time>2020-03-19T21:08:04Z</time>
      </trkpt>
      <trkpt lat="42.33655" lon="8.89753">
        <ele>1393.991</ele>
        <time>2020-03-19T21:08:24Z</time>
      </trkpt>
      <trkpt lat="42.33658" lon="8.89605">
        <ele>1420.224</ele>
        <time>2020-03-19T21:08:44Z</time>
      </trkpt>
      <trkpt lat="42.33647" lon="8.89573">
        <ele>1419.57</ele>
        <time>2020-03-19T21:09:04Z</time>
      </trkpt>
      <trkpt lat="42.33619" lon="8.89499">
        <ele>1416.764</ele>
        <time>2020-03-19T21:09:24Z</time>
      </trkpt>
      <trkpt lat="42.3362" lon="8.89473">
        <ele>1423.206</ele>
        <time>2020-03-19T21:09:44Z</time>
      </trkpt>
      <trkpt lat="42.33589" lon="8.89409">
        <ele>1424.616</ele>
        <time>2020-03-19T21:10:04Z</time>
      </trkpt>
      <trkpt lat="42.33598" lon="8.89342">
        <ele>1439.808</ele>
        <time>2020-03-19T21:10:24Z</time>
      </trkpt>
      <trkpt lat="42.33589" lon="8.89309">
        <ele>1445.51</ele>
        <time>2020-03-19T21:10:44Z</time>
      </trkpt>
      <trkpt lat="42.33588" lon="8.89282">
        <ele>1453.823</ele>
        <time>2020-03-19T21:11:04Z</time>
      </trkpt>
      <trkpt lat="42.33577" lon="8.89243">
        <ele>1458.235</ele>
        <time>2020-03-19T21:11:24Z</time>
      </trkpt>
      <trkpt lat="42.33576" lon="8.892">
        <ele>1465.833</ele>
        <time>2020-03-19T21:11:44Z</time>
      </trkpt>
      <trkpt lat="42.33561" lon="8.89167">
        <ele>1470.617</ele>
        <time>2020-03-19T21:12:04Z</time>
      </trkpt>
      <trkpt lat="42.33564" lon="8.89148">
        <ele>1478.511</ele>
        <time>2020-03-19T21:12:24Z</time>
      </trkpt>
      <trkpt lat="42.33554" lon="8.89131">
        <ele>1481.194</ele>
        <time>2020-03-19T21:12:44Z</time>
      </trkpt>
      <trkpt lat="42.33551" lon="8.89091">
        <ele>1490.91</ele>
        <time>2020-03-19T21:13:04Z</time>
      </trkpt>
      <trkpt lat="42.33537" lon="8.89063">
        <ele>1497.371</ele>
        <time>2020-03-19T21:13:24Z</time>
      </trkpt>
      <trkpt lat="42.33542" lon="8.88969">
        <ele>1526.141</ele>
        <time>2020-03-19T21:13:44Z</time>
      </trkpt>
      <trkpt lat="42.33558" lon="8.88898">
        <ele>1550.315</ele>
        <time>2020-03-19T21:14:04Z</time>
      </trkpt>
      <trkpt lat="42.3356" lon="8.88838">
        <ele>1579.008</ele>
        <time>2020-03-19T21:14:24Z</time>
      </trkpt>
      <trkpt lat="42.33557" lon="8.8872">
        <ele>1613.211</ele>
        <time>2020-03-19T21:14:44Z</time>
      </trkpt>
      <trkpt lat="42.33542" lon="8.88718">
        <ele>1612.584</ele>
        <time>2020-03-19T21:15:04Z</time>
      </trkpt>
      <trkpt lat="42.33526" lon="8.88698">
        <ele>1619.236</ele>
        <time>2020-03-19T21:15:24Z</time>
      </trkpt>
      <trkpt lat="42.33524" lon="8.88684">
        <ele>1622.374</ele>
        <time>2020-03-19T21:15:44Z</time>
      </trkpt>
      <trkpt lat="42.33485" lon="8.88601">
        <ele>1644.378</ele>
        <time>2020-03-19T21:16:04Z</time>
      </trkpt>
      <trkpt lat="42.33472" lon="8.88545">
        <ele>1657.592</ele>
        <time>2020-03-19T21:16:24Z</time>
      </trkpt>
      <trkpt lat="42.33474" lon="8.8852">
        <ele>1670.755</ele>
        <time>2020-03-19T21:16:44Z</time>
      </trkpt>
      <trkpt lat="42.33456" lon="8.88442">
        <ele>1699.341</ele>
        <time>2020-03-19T21:17:04Z</time>
      </trkpt>
      <trkpt lat="42.33453" lon="8.88406">
        <ele>1709.257</ele>
        <time>2020-03-19T21:17:24Z</time>
      </trkpt>
      <trkpt lat="42.33428" lon="8.88299">
        <ele>1731.1</ele>
        <time>2020-03-19T21:17:44Z</time>
      </trkpt>
      <trkpt lat="42.33403" lon="8.88217">
        <ele>1751.42</ele>
        <time>2020-03-19T21:18:04Z</time>
      </trkpt>
      <trkpt lat="42.33381" lon="8.88179">
        <ele>1760.608</ele>
        <time>2020-03-19T21:18:24Z</time>
      </trkpt>
      <trkpt lat="42.3339" lon="8.88146">
        <ele>1778.859</ele>
        <time>2020-03-19T21:18:44Z</time>
      </trkpt>
      <trkpt lat="42.33389" lon="8.88129">
        <ele>1787.732</ele>
        <time>2020-03-19T21:19:04Z</time>
      </trkpt>
      <trkpt lat="42.33406" lon="8.88099">
        <ele>1816.234</ele>
        <time>2020-03-19T21:19:24Z</time>
      </trkpt>
      <trkpt lat="42.33389" lon="8.88053">
        <ele>1825.012</ele>
        <time>2020-03-19T21:19:44Z</time>
      </trkpt>
      <trkpt lat="42.33406" lon="8.88041">
        <ele>1841.076</ele>
        <time>2020-03-19T21:20:04Z</time>
      </trkpt>
      <trkpt lat="42.33385" lon="8.88022">
        <ele>1837.28</ele>
        <time>2020-03-19T21:20:24Z</time>
      </trkpt>
      <trkpt lat="42.33391" lon="8.8799">
        <ele>1848.383</ele>
        <time>2020-03-19T21:20:44Z</time>
      </trkpt>
      <trkpt lat="42.33432" lon="8.87971">
        <ele>1869.799</ele>
        <time>2020-03-19T21:21:04Z</time>
      </trkpt>
      <trkpt lat="42.33399" lon="8.87884">
        <ele>1891.865</ele>
        <time>2020-03-19T21:21:24Z</time>
      </trkpt>
      <trkpt lat="42.33365" lon="8.87848">
        <ele>1902.268</ele>
        <time>2020-03-19T21:21:44Z</time>
      </trkpt>
      <trkpt lat="42.33354" lon="8.87819">
        <ele>1913.314</ele>
        <time>2020-03-19T21:22:04Z</time>
      </trkpt>
      <trkpt lat="42.33334" lon="8.87821">
        <ele>1910.908</ele>
        <time>2020-03-19T21:22:24Z</time>
      </trkpt>
      <trkpt lat="42.33303" lon="8.87785">
        <ele>1921.11</ele>
        <time>2020-03-19T21:22:44Z</time>
      </trkpt>
      <trkpt lat="42.33285" lon="8.87753">
        <ele>1935.753</ele>
        <time>2020-03-19T21:23:04Z</time>
      </trkpt>
      <trkpt lat="42.33257" lon="8.87659">
        <ele>1966.725</ele>
        <time>2020-03-19T21:23:24Z</time>
      </trkpt>
      <trkpt lat="42.33296" lon="8.87648">
        <ele>1974.513</ele>
        <time>2020-03-19T21:23:44Z</time>
      </trkpt>
      <trkpt lat="42.33349" lon="8.87578">
        <ele>1995.377</ele>
        <time>2020-03-19T21:24:04Z</time>
      </trkpt>
      <trkpt lat="42.33357" lon="8.87562">
        <ele>1998.791</ele>
        <time>2020-03-19T21:24:24Z</time>
      </trkpt>
      <trkpt lat="42.33373" lon="8.87547">
        <ele>2006.544</ele>
        <time>2020-03-19T21:24:44Z</time>
      </trkpt>
      <trkpt lat="42.33399" lon="8.87471">
        <ele>2015.71</ele>
        <time>2020-03-19T21:25:04Z</time>
      </trkpt>
      <trkpt lat="42.33415" lon="8.87455">
        <ele>2023.792</ele>
        <time>2020-03-19T21:25:24Z</time>
      </trkpt>
      <trkpt lat="42.3348" lon="8.87325">
        <ele>2035.773</ele>
        <time>2020-03-19T21:25:44Z</time>
      </trkpt>
      <trkpt lat="42.33478" lon="8.87302">
        <ele>2030.52</ele>
        <time>2020-03-19T21:26:04Z</time>
      </trkpt>
      <trkpt lat="42.33499" lon="8.87237">
        <ele>2024.508</ele>
        <time>2020-03-19T21:26:24Z</time>
      </trkpt>
      <trkpt lat="42.33507" lon="8.87184">
        <ele>2018.073</ele>
        <time>2020-03-19T21:26:44Z</time>
      </trkpt>
      <trkpt lat="42.33503" lon="8.87165">
        <ele>2012.756</ele>
        <time>2020-03-19T21:27:04Z</time>
      </trkpt>
      <trkpt lat="42.3352" lon="8.87108">
        <ele>2007.918</ele>
        <time>2020-03-19T21:27:24Z</time>
      </trkpt>
      <trkpt lat="42.33527" lon="8.87067">
        <ele>2000.756</ele>
        <time>2020-03-19T21:27:44Z</time>
      </trkpt>
      <trkpt lat="42.33543" lon="8.87024">
        <ele>2001.77</ele>
        <time>2020-03-19T21:28:04Z</time>
      </trkpt>
      <trkpt lat="42.33543" lon="8.86989">
        <ele>1997.324</ele>
        <time>2020-03-19T21:28:24Z</time>
      </trkpt>
      <trkpt lat="42.33549" lon="8.86944">
        <ele>1993.017</ele>
        <time>2020-03-19T21:28:44Z</time>
      </trkpt>
      <trkpt lat="42.33549" lon="8.86905">
        <ele>1991.733</ele>
        <time>2020-03-19T21:29:04Z</time>
      </trkpt>
      <trkpt lat="42.33535" lon="8.86864">
        <ele>1992.415</ele>
        <time>2020-03-19T21:29:24Z</time>
      </trkpt>
      <trkpt lat="42.33526" lon="8.86834">
        <ele>2000.065</ele>
        <time>2020-03-19T21:29:44Z</time>
      </trkpt>
    </trkseg>
  </trk>
</gpx>